sensor_id;sensor_type;location;lat;lon;timestamp;pressure;altitude;pressure_sealevel;temperature;humidity
35419;BME280;21525;41.240;16.500;2022-09-17T00:00:39;100264.97;;;33.71;52.83
35419;BME280;21525;41.240;16.500;2022-09-17T00:03:06;100268.78;;;33.54;53.55
35419;BME280;21525;41.240;16.500;2022-09-17T00:05:33;100282.13;;;33.78;52.51
35419;BME280;21525;41.240;16.500;2022-09-17T00:08:03;100306.53;;;33.54;52.97
35419;BME280;21525;41.240;16.500;2022-09-17T00:10:29;100309.81;;;33.10;53.45
35419;BME280;21525;41.240;16.500;2022-09-17T00:12:55;100303.91;;;33.46;52.23
35419;BME280;21525;41.240;16.500;2022-09-17T00:15:21;100308.56;;;33.52;51.31
35419;BME280;21525;41.240;16.500;2022-09-17T00:21:53;100304.19;;;33.51;46.99
35419;BME280;21525;41.240;16.500;2022-09-17T00:24:20;100299.59;;;33.36;47.92
35419;BME280;21525;41.240;16.500;2022-09-17T00:26:46;100295.88;;;33.60;47.47
35419;BME280;21525;41.240;16.500;2022-09-17T00:29:13;100297.28;;;33.17;48.80
35419;BME280;21525;41.240;16.500;2022-09-17T00:31:39;100298.16;;;32.79;50.13
35419;BME280;21525;41.240;16.500;2022-09-17T00:34:05;100298.53;;;33.46;49.31
35419;BME280;21525;41.240;16.500;2022-09-17T00:36:34;100290.97;;;33.41;48.09
35419;BME280;21525;41.240;16.500;2022-09-17T00:39:00;100293.53;;;32.87;47.43
35419;BME280;21525;41.240;16.500;2022-09-17T00:41:30;100273.59;;;33.13;47.08
35419;BME280;21525;41.240;16.500;2022-09-17T00:46:47;100275.16;;;32.99;45.60
35419;BME280;21525;41.240;16.500;2022-09-17T00:49:25;100286.03;;;32.66;45.44
35419;BME280;21525;41.240;16.500;2022-09-17T00:51:56;100277.88;;;32.91;44.73
35419;BME280;21525;41.240;16.500;2022-09-17T00:54:26;100268.44;;;32.95;44.10
35419;BME280;21525;41.240;16.500;2022-09-17T00:56:52;100261.47;;;32.61;44.62
35419;BME280;21525;41.240;16.500;2022-09-17T00:59:19;100251.25;;;32.96;43.79
35419;BME280;21525;41.240;16.500;2022-09-17T01:01:47;100256.31;;;32.44;44.48
35419;BME280;21525;41.240;16.500;2022-09-17T01:04:21;100242.81;;;32.52;44.33
35419;BME280;21525;41.240;16.500;2022-09-17T01:07:05;100225.34;;;32.95;43.57
35419;BME280;21525;41.240;16.500;2022-09-17T01:14:50;100278.19;;;32.49;44.63
35419;BME280;21525;41.240;16.500;2022-09-17T01:22:55;100265.50;;;32.57;44.42
35419;BME280;21525;41.240;16.500;2022-09-17T01:31:00;100238.78;;;33.03;43.91
35419;BME280;21525;41.240;16.500;2022-09-17T01:36:41;100238.91;;;32.70;45.31
35419;BME280;21525;41.240;16.500;2022-09-17T01:42:09;100220.78;;;32.95;44.93
35419;BME280;21525;41.240;16.500;2022-09-17T01:44:49;100223.75;;;33.09;44.70
35419;BME280;21525;41.240;16.500;2022-09-17T01:49:54;100216.69;;;33.08;44.34
35419;BME280;21525;41.240;16.500;2022-09-17T01:52:22;100224.81;;;32.99;45.18
35419;BME280;21525;41.240;16.500;2022-09-17T01:54:54;100229.06;;;32.38;45.88
35419;BME280;21525;41.240;16.500;2022-09-17T01:57:29;100220.41;;;32.59;46.12
35419;BME280;21525;41.240;16.500;2022-09-17T02:00:13;100216.31;;;32.32;46.67
35419;BME280;21525;41.240;16.500;2022-09-17T02:02:47;100205.25;;;32.66;46.21
35419;BME280;21525;41.240;16.500;2022-09-17T02:07:52;100207.41;;;32.71;45.84
35419;BME280;21525;41.240;16.500;2022-09-17T02:10:28;100179.78;;;32.46;46.91
35419;BME280;21525;41.240;16.500;2022-09-17T02:12:59;100167.84;;;32.41;47.29
35419;BME280;21525;41.240;16.500;2022-09-17T02:15:32;100150.75;;;32.56;46.88
35419;BME280;21525;41.240;16.500;2022-09-17T02:20:53;100149.34;;;32.37;47.06
35419;BME280;21525;41.240;16.500;2022-09-17T02:23:28;100149.53;;;32.28;46.86
35419;BME280;21525;41.240;16.500;2022-09-17T02:26:08;100124.78;;;32.80;46.20
35419;BME280;21525;41.240;16.500;2022-09-17T02:28:42;100133.88;;;32.79;46.00
35419;BME280;21525;41.240;16.500;2022-09-17T02:31:10;100147.00;;;32.73;46.27
35419;BME280;21525;41.240;16.500;2022-09-17T02:33:37;100157.44;;;32.29;46.77
35419;BME280;21525;41.240;16.500;2022-09-17T02:36:05;100154.94;;;32.75;45.39
35419;BME280;21525;41.240;16.500;2022-09-17T02:38:31;100144.34;;;32.65;45.73
35419;BME280;21525;41.240;16.500;2022-09-17T02:41:10;100134.03;;;32.38;46.42
35419;BME280;21525;41.240;16.500;2022-09-17T02:52:11;100114.50;;;33.06;45.80
35419;BME280;21525;41.240;16.500;2022-09-17T02:55:01;100124.81;;;32.94;45.45
35419;BME280;21525;41.240;16.500;2022-09-17T02:57:39;100143.81;;;33.01;46.12
35419;BME280;21525;41.240;16.500;2022-09-17T03:00:13;100130.44;;;33.38;44.88
35419;BME280;21525;41.240;16.500;2022-09-17T03:05:26;100158.81;;;32.64;46.44
35419;BME280;21525;41.240;16.500;2022-09-17T03:07:54;100183.56;;;31.88;48.26
35419;BME280;21525;41.240;16.500;2022-09-17T03:10:21;100187.09;;;32.05;49.57
35419;BME280;21525;41.240;16.500;2022-09-17T03:12:48;100184.69;;;32.18;50.38
35419;BME280;21525;41.240;16.500;2022-09-17T03:15:14;100183.56;;;31.31;52.84
35419;BME280;21525;41.240;16.500;2022-09-17T03:17:40;100185.16;;;31.00;53.94
35419;BME280;21525;41.240;16.500;2022-09-17T03:20:06;100183.56;;;30.73;55.69
35419;BME280;21525;41.240;16.500;2022-09-17T03:22:32;100187.34;;;31.04;55.25
35419;BME280;21525;41.240;16.500;2022-09-17T03:24:58;100186.63;;;31.69;53.66
35419;BME280;21525;41.240;16.500;2022-09-17T03:27:24;100190.28;;;31.44;54.34
35419;BME280;21525;41.240;16.500;2022-09-17T03:29:50;100180.81;;;31.07;58.25
35419;BME280;21525;41.240;16.500;2022-09-17T03:32:16;100171.63;;;31.34;59.12
35419;BME280;21525;41.240;16.500;2022-09-17T03:34:42;100181.28;;;30.94;59.56
35419;BME280;21525;41.240;16.500;2022-09-17T03:37:08;100196.88;;;30.83;61.20
35419;BME280;21525;41.240;16.500;2022-09-17T03:39:34;100219.22;;;30.57;61.26
35419;BME280;21525;41.240;16.500;2022-09-17T03:42:00;100231.94;;;30.21;61.63
35419;BME280;21525;41.240;16.500;2022-09-17T03:44:26;100235.03;;;29.91;63.72
35419;BME280;21525;41.240;16.500;2022-09-17T03:46:52;100244.97;;;29.27;66.72
35419;BME280;21525;41.240;16.500;2022-09-17T03:49:18;100233.66;;;29.33;66.75
35419;BME280;21525;41.240;16.500;2022-09-17T03:51:43;100223.94;;;29.86;63.79
35419;BME280;21525;41.240;16.500;2022-09-17T03:54:10;100208.09;;;29.21;66.42
35419;BME280;21525;41.240;16.500;2022-09-17T03:56:35;100201.91;;;28.66;69.15
35419;BME280;21525;41.240;16.500;2022-09-17T03:59:01;100221.09;;;29.16;66.89
35419;BME280;21525;41.240;16.500;2022-09-17T04:01:28;100219.47;;;29.51;66.24
35419;BME280;21525;41.240;16.500;2022-09-17T04:03:54;100227.66;;;29.04;68.45
35419;BME280;21525;41.240;16.500;2022-09-17T04:06:20;100209.00;;;29.12;68.20
35419;BME280;21525;41.240;16.500;2022-09-17T04:08:46;100207.91;;;29.50;66.09
35419;BME280;21525;41.240;16.500;2022-09-17T04:11:12;100207.38;;;29.90;65.43
35419;BME280;21525;41.240;16.500;2022-09-17T04:13:38;100226.50;;;29.52;67.25
35419;BME280;21525;41.240;16.500;2022-09-17T04:16:04;100197.84;;;29.17;68.78
35419;BME280;21525;41.240;16.500;2022-09-17T04:18:30;100202.88;;;29.02;69.45
35419;BME280;21525;41.240;16.500;2022-09-17T04:20:56;100211.72;;;28.85;69.91
35419;BME280;21525;41.240;16.500;2022-09-17T04:23:22;100208.25;;;28.92;70.07
35419;BME280;21525;41.240;16.500;2022-09-17T04:25:48;100167.19;;;28.56;72.26
35419;BME280;21525;41.240;16.500;2022-09-17T04:28:14;100186.25;;;28.98;70.41
35419;BME280;21525;41.240;16.500;2022-09-17T04:30:40;100171.97;;;29.61;67.47
35419;BME280;21525;41.240;16.500;2022-09-17T04:33:08;100128.44;;;29.41;68.45
35419;BME280;21525;41.240;16.500;2022-09-17T04:35:34;100128.44;;;29.05;70.09
35419;BME280;21525;41.240;16.500;2022-09-17T04:38:00;100136.16;;;28.91;71.89
35419;BME280;21525;41.240;16.500;2022-09-17T04:40:27;100140.28;;;29.03;71.43
35419;BME280;21525;41.240;16.500;2022-09-17T04:42:54;100141.31;;;28.74;73.42
35419;BME280;21525;41.240;16.500;2022-09-17T04:45:21;100142.78;;;28.32;75.12
35419;BME280;21525;41.240;16.500;2022-09-17T04:47:48;100119.75;;;27.74;79.05
35419;BME280;21525;41.240;16.500;2022-09-17T04:50:19;100197.53;;;27.81;80.63
35419;BME280;21525;41.240;16.500;2022-09-17T04:52:45;100176.22;;;28.83;75.28
35419;BME280;21525;41.240;16.500;2022-09-17T04:55:12;100106.66;;;27.81;80.55
35419;BME280;21525;41.240;16.500;2022-09-17T04:57:38;100085.78;;;26.99;86.21
35419;BME280;21525;41.240;16.500;2022-09-17T05:00:10;100061.56;;;26.43;92.44
35419;BME280;21525;41.240;16.500;2022-09-17T05:02:36;100052.25;;;25.88;99.50
35419;BME280;21525;41.240;16.500;2022-09-17T05:05:02;100052.00;;;26.00;100.00
35419;BME280;21525;41.240;16.500;2022-09-17T05:07:28;100013.56;;;25.63;100.00
35419;BME280;21525;41.240;16.500;2022-09-17T05:09:54;99985.03;;;25.74;100.00
35419;BME280;21525;41.240;16.500;2022-09-17T05:12:19;99972.34;;;25.97;100.00
35419;BME280;21525;41.240;16.500;2022-09-17T05:14:45;99969.06;;;25.84;100.00
35419;BME280;21525;41.240;16.500;2022-09-17T05:17:11;99991.97;;;26.56;99.67
35419;BME280;21525;41.240;16.500;2022-09-17T05:19:37;100009.66;;;26.76;94.18
35419;BME280;21525;41.240;16.500;2022-09-17T05:22:03;100023.06;;;27.52;89.51
35419;BME280;21525;41.240;16.500;2022-09-17T05:24:29;100006.16;;;26.95;92.33
35419;BME280;21525;41.240;16.500;2022-09-17T05:26:55;99991.13;;;26.55;93.94
35419;BME280;21525;41.240;16.500;2022-09-17T05:29:21;99995.34;;;26.87;90.88
35419;BME280;21525;41.240;16.500;2022-09-17T05:31:47;99999.69;;;26.88;91.38
35419;BME280;21525;41.240;16.500;2022-09-17T05:34:13;100002.91;;;27.10;89.87
35419;BME280;21525;41.240;16.500;2022-09-17T05:36:38;100012.97;;;27.36;84.92
35419;BME280;21525;41.240;16.500;2022-09-17T05:39:04;100017.34;;;28.11;79.51
35419;BME280;21525;41.240;16.500;2022-09-17T05:41:30;100033.94;;;28.42;77.11
35419;BME280;21525;41.240;16.500;2022-09-17T05:43:56;100033.88;;;28.52;74.16
35419;BME280;21525;41.240;16.500;2022-09-17T05:46:22;100039.34;;;28.32;74.58
35419;BME280;21525;41.240;16.500;2022-09-17T05:48:47;100040.41;;;28.12;75.12
35419;BME280;21525;41.240;16.500;2022-09-17T05:51:13;100042.03;;;28.68;74.10
35419;BME280;21525;41.240;16.500;2022-09-17T05:53:39;100038.06;;;29.43;70.46
35419;BME280;21525;41.240;16.500;2022-09-17T05:56:05;100030.78;;;29.87;68.64
35419;BME280;21525;41.240;16.500;2022-09-17T05:58:31;100026.03;;;29.47;69.20
35419;BME280;21525;41.240;16.500;2022-09-17T06:01:02;100023.66;;;30.04;66.43
35419;BME280;21525;41.240;16.500;2022-09-17T06:03:28;100029.09;;;29.94;66.42
35419;BME280;21525;41.240;16.500;2022-09-17T06:05:57;100025.91;;;30.33;65.83
35419;BME280;21525;41.240;16.500;2022-09-17T06:08:24;100027.16;;;29.70;65.88
35419;BME280;21525;41.240;16.500;2022-09-17T06:10:50;100020.28;;;28.81;69.02
35419;BME280;21525;41.240;16.500;2022-09-17T06:13:17;100031.44;;;29.12;68.57
35419;BME280;21525;41.240;16.500;2022-09-17T06:15:48;100029.50;;;29.73;66.95
35419;BME280;21525;41.240;16.500;2022-09-17T06:18:15;100027.22;;;30.13;65.70
35419;BME280;21525;41.240;16.500;2022-09-17T06:20:41;100025.66;;;30.60;63.81
35419;BME280;21525;41.240;16.500;2022-09-17T06:23:07;100031.22;;;30.67;63.48
35419;BME280;21525;41.240;16.500;2022-09-17T06:25:33;100022.69;;;31.36;61.39
35419;BME280;21525;41.240;16.500;2022-09-17T06:28:01;100029.44;;;31.88;59.65
35419;BME280;21525;41.240;16.500;2022-09-17T06:30:27;100026.88;;;32.64;58.26
35419;BME280;21525;41.240;16.500;2022-09-17T06:32:53;100018.88;;;33.40;55.14
35419;BME280;21525;41.240;16.500;2022-09-17T06:35:19;100037.09;;;34.26;52.37
35419;BME280;21525;41.240;16.500;2022-09-17T06:37:45;100030.50;;;35.07;49.86
35419;BME280;21525;41.240;16.500;2022-09-17T06:40:10;100036.03;;;35.48;48.44
35419;BME280;21525;41.240;16.500;2022-09-17T06:42:36;100030.81;;;36.22;45.77
35419;BME280;21525;41.240;16.500;2022-09-17T06:45:03;100025.09;;;36.39;44.98
35419;BME280;21525;41.240;16.500;2022-09-17T06:47:29;100034.56;;;34.24;48.63
35419;BME280;21525;41.240;16.500;2022-09-17T06:49:55;100021.63;;;36.17;45.82
35419;BME280;21525;41.240;16.500;2022-09-17T06:52:21;100012.00;;;36.55;44.00
35419;BME280;21525;41.240;16.500;2022-09-17T06:54:47;100014.88;;;35.93;45.47
35419;BME280;21525;41.240;16.500;2022-09-17T06:57:13;100017.78;;;35.57;45.49
35419;BME280;21525;41.240;16.500;2022-09-17T06:59:39;100023.28;;;36.79;43.89
35419;BME280;21525;41.240;16.500;2022-09-17T07:02:05;100022.38;;;36.45;44.21
35419;BME280;21525;41.240;16.500;2022-09-17T07:04:31;100024.53;;;36.76;43.23
35419;BME280;21525;41.240;16.500;2022-09-17T07:06:57;100024.56;;;36.96;43.77
35419;BME280;21525;41.240;16.500;2022-09-17T07:09:23;100019.72;;;36.58;43.84
35419;BME280;21525;41.240;16.500;2022-09-17T07:11:48;100018.09;;;36.90;43.36
35419;BME280;21525;41.240;16.500;2022-09-17T07:14:14;100006.75;;;36.47;43.30
35419;BME280;21525;41.240;16.500;2022-09-17T07:16:40;100007.66;;;36.81;42.96
35419;BME280;21525;41.240;16.500;2022-09-17T07:19:06;100013.06;;;37.60;42.22
35419;BME280;21525;41.240;16.500;2022-09-17T07:21:32;100010.19;;;36.89;43.34
35419;BME280;21525;41.240;16.500;2022-09-17T07:23:58;100014.97;;;37.13;42.10
35419;BME280;21525;41.240;16.500;2022-09-17T07:26:24;100015.19;;;36.92;42.14
35419;BME280;21525;41.240;16.500;2022-09-17T07:28:50;100020.44;;;37.26;41.94
35419;BME280;21525;41.240;16.500;2022-09-17T07:31:15;100006.34;;;37.82;41.17
35419;BME280;21525;41.240;16.500;2022-09-17T07:33:42;100011.91;;;38.01;40.07
35419;BME280;21525;41.240;16.500;2022-09-17T07:36:13;100010.19;;;38.51;40.14
35419;BME280;21525;41.240;16.500;2022-09-17T07:38:39;100010.19;;;38.06;39.59
35419;BME280;21525;41.240;16.500;2022-09-17T07:41:10;100002.94;;;38.76;38.72
35419;BME280;21525;41.240;16.500;2022-09-17T07:43:40;99998.69;;;38.87;38.26
35419;BME280;21525;41.240;16.500;2022-09-17T07:46:07;100008.50;;;38.63;38.02
35419;BME280;21525;41.240;16.500;2022-09-17T07:48:37;100014.09;;;36.60;43.31
35419;BME280;21525;41.240;16.500;2022-09-17T07:51:03;100008.66;;;36.60;43.48
35419;BME280;21525;41.240;16.500;2022-09-17T07:53:29;100010.91;;;36.37;44.56
35419;BME280;21525;41.240;16.500;2022-09-17T07:55:57;100017.63;;;35.65;46.51
35419;BME280;21525;41.240;16.500;2022-09-17T07:58:30;100014.69;;;35.94;44.88
35419;BME280;21525;41.240;16.500;2022-09-17T08:01:08;100016.78;;;35.30;46.68
35419;BME280;21525;41.240;16.500;2022-09-17T08:03:35;100018.81;;;36.31;44.68
35419;BME280;21525;41.240;16.500;2022-09-17T08:06:07;100028.47;;;36.60;43.23
35419;BME280;21525;41.240;16.500;2022-09-17T08:08:33;100021.72;;;36.30;43.31
35419;BME280;21525;41.240;16.500;2022-09-17T08:11:05;100022.13;;;36.27;43.05
35419;BME280;21525;41.240;16.500;2022-09-17T08:13:31;100019.06;;;36.56;42.76
35419;BME280;21525;41.240;16.500;2022-09-17T08:15:59;100016.09;;;35.28;45.15
35419;BME280;21525;41.240;16.500;2022-09-17T08:18:26;100007.44;;;35.11;45.79
35419;BME280;21525;41.240;16.500;2022-09-17T08:20:55;100006.06;;;35.22;44.93
35419;BME280;21525;41.240;16.500;2022-09-17T08:23:21;100004.25;;;34.80;45.79
35419;BME280;21525;41.240;16.500;2022-09-17T08:25:54;100011.28;;;35.79;44.80
35419;BME280;21525;41.240;16.500;2022-09-17T08:28:21;100010.91;;;35.54;45.32
35419;BME280;21525;41.240;16.500;2022-09-17T08:30:48;100012.91;;;35.74;45.36
35419;BME280;21525;41.240;16.500;2022-09-17T08:33:15;100023.50;;;34.70;47.80
35419;BME280;21525;41.240;16.500;2022-09-17T08:35:41;100022.41;;;35.07;46.97
35419;BME280;21525;41.240;16.500;2022-09-17T08:38:07;100029.63;;;35.56;46.05
35419;BME280;21525;41.240;16.500;2022-09-17T08:40:41;100019.72;;;35.35;45.89
35419;BME280;21525;41.240;16.500;2022-09-17T08:43:15;100017.34;;;35.88;44.94
35419;BME280;21525;41.240;16.500;2022-09-17T08:45:43;100020.88;;;35.54;45.36
35419;BME280;21525;41.240;16.500;2022-09-17T08:48:12;100026.06;;;35.83;44.32
35419;BME280;21525;41.240;16.500;2022-09-17T08:50:39;100025.03;;;35.84;43.97
35419;BME280;21525;41.240;16.500;2022-09-17T08:53:34;100028.72;;;36.79;42.31
35419;BME280;21525;41.240;16.500;2022-09-17T08:56:11;100038.81;;;36.44;42.43
35419;BME280;21525;41.240;16.500;2022-09-17T09:04:23;100018.25;;;36.62;42.31
35419;BME280;21525;41.240;16.500;2022-09-17T09:07:05;100017.75;;;36.26;43.38
35419;BME280;21525;41.240;16.500;2022-09-17T09:09:38;100022.09;;;37.21;42.43
35419;BME280;21525;41.240;16.500;2022-09-17T09:12:33;100014.00;;;37.98;40.66
35419;BME280;21525;41.240;16.500;2022-09-17T09:15:01;100001.78;;;37.70;40.14
35419;BME280;21525;41.240;16.500;2022-09-17T09:17:35;99998.25;;;38.27;38.31
35419;BME280;21525;41.240;16.500;2022-09-17T09:20:03;99987.22;;;38.09;37.24
35419;BME280;21525;41.240;16.500;2022-09-17T09:25:22;99981.72;;;37.77;37.07
35419;BME280;21525;41.240;16.500;2022-09-17T09:33:29;99964.47;;;39.04;35.64
35419;BME280;21525;41.240;16.500;2022-09-17T09:35:56;99949.97;;;39.10;35.81
35419;BME280;21525;41.240;16.500;2022-09-17T09:38:34;99948.47;;;38.89;36.13
35419;BME280;21525;41.240;16.500;2022-09-17T09:44:02;99949.38;;;38.58;35.38
35419;BME280;21525;41.240;16.500;2022-09-17T09:55:16;99932.38;;;37.93;33.90
35419;BME280;21525;41.240;16.500;2022-09-17T09:57:52;99930.19;;;38.15;33.14
35419;BME280;21525;41.240;16.500;2022-09-17T10:00:30;99933.53;;;38.17;33.32
35419;BME280;21525;41.240;16.500;2022-09-17T10:03:18;99939.19;;;38.09;34.03
35419;BME280;21525;41.240;16.500;2022-09-17T10:06:00;99935.53;;;37.32;34.53
35419;BME280;21525;41.240;16.500;2022-09-17T10:08:29;99930.91;;;37.13;34.60
35419;BME280;21525;41.240;16.500;2022-09-17T10:13:24;99915.84;;;37.44;34.38
35419;BME280;21525;41.240;16.500;2022-09-17T10:15:50;99918.59;;;37.37;34.72
35419;BME280;21525;41.240;16.500;2022-09-17T10:18:18;99923.09;;;37.63;34.48
35419;BME280;21525;41.240;16.500;2022-09-17T10:21:03;99911.97;;;37.84;33.61
35419;BME280;21525;41.240;16.500;2022-09-17T10:23:32;99892.09;;;38.28;33.26
35419;BME280;21525;41.240;16.500;2022-09-17T10:26:01;99887.78;;;38.14;33.72
35419;BME280;21525;41.240;16.500;2022-09-17T10:28:31;99878.94;;;38.57;33.05
35419;BME280;21525;41.240;16.500;2022-09-17T10:31:00;99866.81;;;38.59;32.75
35419;BME280;21525;41.240;16.500;2022-09-17T10:33:30;99877.78;;;38.08;33.34
35419;BME280;21525;41.240;16.500;2022-09-17T10:36:00;99868.69;;;37.96;33.83
35419;BME280;21525;41.240;16.500;2022-09-17T10:38:35;99866.03;;;37.83;34.04
35419;BME280;21525;41.240;16.500;2022-09-17T10:41:18;99854.53;;;37.87;34.33
35419;BME280;21525;41.240;16.500;2022-09-17T10:43:47;99866.50;;;37.73;34.32
35419;BME280;21525;41.240;16.500;2022-09-17T10:46:27;99864.50;;;37.55;34.29
35419;BME280;21525;41.240;16.500;2022-09-17T10:49:09;99863.91;;;37.47;34.52
35419;BME280;21525;41.240;16.500;2022-09-17T10:51:37;99864.19;;;37.25;34.77
35419;BME280;21525;41.240;16.500;2022-09-17T10:54:25;99862.31;;;37.06;34.53
35419;BME280;21525;41.240;16.500;2022-09-17T10:56:58;99855.25;;;37.70;34.07
35419;BME280;21525;41.240;16.500;2022-09-17T11:00:46;99847.22;;;37.37;34.64
35419;BME280;21525;41.240;16.500;2022-09-17T11:21:04;99801.63;;;37.20;33.75
35419;BME280;21525;41.240;16.500;2022-09-17T11:32:01;99785.34;;;37.14;34.55
35419;BME280;21525;41.240;16.500;2022-09-17T11:37:39;99787.84;;;37.15;34.35
35419;BME280;21525;41.240;16.500;2022-09-17T11:41:16;99763.94;;;37.50;33.90
35419;BME280;21525;41.240;16.500;2022-09-17T11:43:27;99778.25;;;37.19;34.37
35419;BME280;21525;41.240;16.500;2022-09-17T11:48:51;99762.09;;;36.93;34.39
35419;BME280;21525;41.240;16.500;2022-09-17T11:51:36;99749.06;;;37.15;34.14
35419;BME280;21525;41.240;16.500;2022-09-17T11:54:18;99742.66;;;37.47;33.65
35419;BME280;21525;41.240;16.500;2022-09-17T11:56:50;99757.09;;;36.90;34.05
35419;BME280;21525;41.240;16.500;2022-09-17T11:59:43;99746.34;;;37.28;33.45
35419;BME280;21525;41.240;16.500;2022-09-17T12:05:03;99758.31;;;37.00;33.37
35419;BME280;21525;41.240;16.500;2022-09-17T12:13:01;99760.66;;;36.90;34.01
35419;BME280;21525;41.240;16.500;2022-09-17T12:15:30;99756.28;;;36.89;33.70
35419;BME280;21525;41.240;16.500;2022-09-17T12:18:17;99750.50;;;36.66;33.86
35419;BME280;21525;41.240;16.500;2022-09-17T12:20:48;99740.88;;;36.77;33.66
35419;BME280;21525;41.240;16.500;2022-09-17T12:23:20;99738.53;;;37.00;33.34
35419;BME280;21525;41.240;16.500;2022-09-17T12:28:37;99738.97;;;36.90;33.47
35419;BME280;21525;41.240;16.500;2022-09-17T12:31:14;99744.06;;;37.12;33.15
35419;BME280;21525;41.240;16.500;2022-09-17T12:33:48;99730.72;;;37.17;32.71
35419;BME280;21525;41.240;16.500;2022-09-17T12:41:20;99724.22;;;36.73;32.21
35419;BME280;21525;41.240;16.500;2022-09-17T12:52:59;99716.00;;;36.99;30.55
35419;BME280;21525;41.240;16.500;2022-09-17T13:01:10;99722.50;;;36.85;29.56
35419;BME280;21525;41.240;16.500;2022-09-17T13:03:47;99716.00;;;37.38;28.96
35419;BME280;21525;41.240;16.500;2022-09-17T13:17:59;99715.16;;;37.44;29.63
35419;BME280;21525;41.240;16.500;2022-09-17T13:20:53;99706.06;;;37.31;29.75
35419;BME280;21525;41.240;16.500;2022-09-17T13:23:39;99711.25;;;36.88;30.40
35419;BME280;21525;41.240;16.500;2022-09-17T13:26:07;99710.59;;;36.93;30.67
35419;BME280;21525;41.240;16.500;2022-09-17T13:28:38;99728.78;;;36.73;30.72
35419;BME280;21525;41.240;16.500;2022-09-17T13:31:05;99724.75;;;37.02;29.17
35419;BME280;21525;41.240;16.500;2022-09-17T13:33:58;99721.03;;;36.89;29.07
35419;BME280;21525;41.240;16.500;2022-09-17T13:39:39;99736.34;;;37.15;28.69
35419;BME280;21525;41.240;16.500;2022-09-17T13:42:10;99740.00;;;36.96;28.27
35419;BME280;21525;41.240;16.500;2022-09-17T13:44:42;99720.06;;;37.60;27.62
35419;BME280;21525;41.240;16.500;2022-09-17T13:47:38;99730.13;;;37.08;27.72
35419;BME280;21525;41.240;16.500;2022-09-17T13:50:08;99742.44;;;36.33;27.71
35419;BME280;21525;41.240;16.500;2022-09-17T13:55:01;99757.16;;;36.70;28.13
35419;BME280;21525;41.240;16.500;2022-09-17T13:57:29;99751.31;;;36.66;28.70
35419;BME280;21525;41.240;16.500;2022-09-17T13:59:59;99768.47;;;36.34;29.25
35419;BME280;21525;41.240;16.500;2022-09-17T14:02:31;99778.00;;;36.23;29.55
35419;BME280;21525;41.240;16.500;2022-09-17T14:05:39;99782.97;;;36.79;28.86
35419;BME280;21525;41.240;16.500;2022-09-17T14:08:10;99780.97;;;36.35;29.35
35419;BME280;21525;41.240;16.500;2022-09-17T14:10:42;99786.97;;;36.50;29.14
35419;BME280;21525;41.240;16.500;2022-09-17T14:13:32;99789.91;;;36.36;29.34
35419;BME280;21525;41.240;16.500;2022-09-17T14:19:03;99794.66;;;36.53;29.24
35419;BME280;21525;41.240;16.500;2022-09-17T14:32:49;99816.91;;;35.89;30.80
35419;BME280;21525;41.240;16.500;2022-09-17T14:35:28;99822.34;;;36.09;30.49
35419;BME280;21525;41.240;16.500;2022-09-17T14:38:02;99831.50;;;35.88;30.45
35419;BME280;21525;41.240;16.500;2022-09-17T14:40:33;99844.78;;;35.83;30.60
35419;BME280;21525;41.240;16.500;2022-09-17T14:42:59;99848.78;;;36.00;30.95
35419;BME280;21525;41.240;16.500;2022-09-17T14:45:27;99848.59;;;36.15;30.38
35419;BME280;21525;41.240;16.500;2022-09-17T14:48:16;99863.50;;;34.96;31.70
35419;BME280;21525;41.240;16.500;2022-09-17T14:50:44;99880.09;;;35.62;31.21
35419;BME280;21525;41.240;16.500;2022-09-17T14:53:15;99872.19;;;35.26;31.29
35419;BME280;21525;41.240;16.500;2022-09-17T14:55:45;99878.31;;;35.89;30.51
35419;BME280;21525;41.240;16.500;2022-09-17T14:58:32;99889.19;;;36.02;30.39
35419;BME280;21525;41.240;16.500;2022-09-17T15:01:00;99876.38;;;35.28;31.72
35419;BME280;21525;41.240;16.500;2022-09-17T15:03:26;99873.91;;;34.99;31.42
35419;BME280;21525;41.240;16.500;2022-09-17T15:05:52;99861.78;;;35.23;31.17
35419;BME280;21525;41.240;16.500;2022-09-17T15:08:21;99878.06;;;35.29;31.04
35419;BME280;21525;41.240;16.500;2022-09-17T15:10:55;99906.31;;;35.27;30.58
35419;BME280;21525;41.240;16.500;2022-09-17T15:13:34;99907.44;;;35.39;30.54
35419;BME280;21525;41.240;16.500;2022-09-17T15:16:18;99938.66;;;35.14;30.38
35419;BME280;21525;41.240;16.500;2022-09-17T15:18:51;99937.16;;;35.11;30.29
35419;BME280;21525;41.240;16.500;2022-09-17T15:21:44;99956.72;;;35.34;30.06
35419;BME280;21525;41.240;16.500;2022-09-17T15:27:32;100025.78;;;35.37;37.17
35419;BME280;21525;41.240;16.500;2022-09-17T15:30:17;100046.31;;;34.67;41.63
35419;BME280;21525;41.240;16.500;2022-09-17T15:32:57;100061.63;;;34.46;43.06
35419;BME280;21525;41.240;16.500;2022-09-17T15:35:31;100056.44;;;34.44;43.17
35419;BME280;21525;41.240;16.500;2022-09-17T15:38:00;100074.31;;;34.45;42.65
35419;BME280;21525;41.240;16.500;2022-09-17T15:40:33;100078.19;;;34.07;43.23
35419;BME280;21525;41.240;16.500;2022-09-17T15:45:39;100084.72;;;33.60;45.22
35419;BME280;21525;41.240;16.500;2022-09-17T15:50:59;100105.09;;;32.79;44.67
35419;BME280;21525;41.240;16.500;2022-09-17T15:53:30;100119.44;;;32.94;43.54
35419;BME280;21525;41.240;16.500;2022-09-17T16:08:59;100143.16;;;32.29;43.70
35419;BME280;21525;41.240;16.500;2022-09-17T16:11:28;100144.91;;;31.97;43.78
35419;BME280;21525;41.240;16.500;2022-09-17T16:13:57;100156.53;;;31.82;44.16